sensor_id;sensor_type;location;lat;lon;timestamp;pressure;altitude;pressure_sealevel;temperature;humidity
23318;BME280;11831;55.918;37.746;2023-04-10T00:00:31;100207.56;;;11.26;0.00
23318;BME280;11831;55.918;37.746;2023-04-10T00:02:58;100210.00;;;11.27;0.00
23318;BME280;11831;55.918;37.746;2023-04-10T00:05:27;100214.09;;;11.36;0.00
23318;BME280;11831;55.918;37.746;2023-04-10T00:07:53;100213.13;;;11.24;0.00
23318;BME280;11831;55.918;37.746;2023-04-10T00:10:20;100214.09;;;11.36;0.00
23318;BME280;11831;55.918;37.746;2023-04-10T00:12:47;100219.13;;;11.58;0.00
23318;BME280;11831;55.918;37.746;2023-04-10T00:15:13;100209.81;;;11.67;0.00
23318;BME280;11831;55.918;37.746;2023-04-10T00:17:39;100209.00;;;11.60;0.00
23318;BME280;11831;55.918;37.746;2023-04-10T00:20:05;100211.50;;;11.55;0.00
23318;BME280;11831;55.918;37.746;2023-04-10T00:22:31;100213.09;;;11.62;0.00
23318;BME280;11831;55.918;37.746;2023-04-10T00:24:58;100222.09;;;11.81;0.00
23318;BME280;11831;55.918;37.746;2023-04-10T00:27:24;100222.78;;;12.01;0.00
23318;BME280;11831;55.918;37.746;2023-04-10T00:29:50;100222.56;;;12.28;0.00
23318;BME280;11831;55.918;37.746;2023-04-10T00:32:16;100229.28;;;12.12;0.00
23318;BME280;11831;55.918;37.746;2023-04-10T00:34:42;100228.13;;;12.01;0.00
23318;BME280;11831;55.918;37.746;2023-04-10T00:37:08;100224.19;;;12.29;0.00
23318;BME280;11831;55.918;37.746;2023-04-10T00:39:34;100227.13;;;12.21;0.00
23318;BME280;11831;55.918;37.746;2023-04-10T00:42:01;100229.06;;;12.38;0.00
23318;BME280;11831;55.918;37.746;2023-04-10T00:44:27;100224.13;;;12.10;0.00
23318;BME280;11831;55.918;37.746;2023-04-10T00:46:53;100225.78;;;12.36;0.00
23318;BME280;11831;55.918;37.746;2023-04-10T00:49:19;100234.03;;;12.35;0.00
23318;BME280;11831;55.918;37.746;2023-04-10T00:51:47;100218.78;;;12.10;0.00
23318;BME280;11831;55.918;37.746;2023-04-10T00:54:13;100225.50;;;12.20;0.00
23318;BME280;11831;55.918;37.746;2023-04-10T00:56:39;100224.06;;;12.17;0.00
23318;BME280;11831;55.918;37.746;2023-04-10T00:59:06;100220.78;;;11.90;0.00
23318;BME280;11831;55.918;37.746;2023-04-10T01:01:32;100212.91;;;11.64;0.00
23318;BME280;11831;55.918;37.746;2023-04-10T01:03:58;100211.62;;;11.73;0.00
23318;BME280;11831;55.918;37.746;2023-04-10T01:09:16;100219.03;;;11.39;0.00
23318;BME280;11831;55.918;37.746;2023-04-10T01:14:48;100207.66;;;11.44;0.00
23318;BME280;11831;55.918;37.746;2023-04-10T01:17:17;100208.62;;;11.56;0.00
23318;BME280;11831;55.918;37.746;2023-04-10T01:20:06;100211.72;;;11.53;0.00
23318;BME280;11831;55.918;37.746;2023-04-10T01:25:11;100210.56;;;11.80;0.00
23318;BME280;11831;55.918;37.746;2023-04-10T01:27:48;100213.56;;;11.91;0.00
23318;BME280;11831;55.918;37.746;2023-04-10T01:30:20;100207.97;;;11.99;0.00
23318;BME280;11831;55.918;37.746;2023-04-10T01:32:48;100210.63;;;11.67;0.00
23318;BME280;11831;55.918;37.746;2023-04-10T01:35:16;100210.94;;;11.84;0.00
23318;BME280;11831;55.918;37.746;2023-04-10T01:37:43;100213.63;;;11.84;0.00
23318;BME280;11831;55.918;37.746;2023-04-10T01:40:14;100212.41;;;11.80;0.00
23318;BME280;11831;55.918;37.746;2023-04-10T01:42:42;100213.84;;;12.07;0.00
23318;BME280;11831;55.918;37.746;2023-04-10T01:45:11;100208.28;;;12.09;0.00
23318;BME280;11831;55.918;37.746;2023-04-10T01:47:38;100216.25;;;12.40;0.00
23318;BME280;11831;55.918;37.746;2023-04-10T01:50:05;100211.13;;;12.14;0.00
23318;BME280;11831;55.918;37.746;2023-04-10T01:52:32;100219.69;;;12.23;0.00
23318;BME280;11831;55.918;37.746;2023-04-10T01:54:59;100209.84;;;12.41;0.00
23318;BME280;11831;55.918;37.746;2023-04-10T01:57:29;100221.53;;;12.04;0.00
23318;BME280;11831;55.918;37.746;2023-04-10T01:59:57;100219.53;;;11.93;0.00
23318;BME280;11831;55.918;37.746;2023-04-10T02:02:23;100212.88;;;12.27;0.00
23318;BME280;11831;55.918;37.746;2023-04-10T02:04:49;100217.34;;;12.08;0.00
23318;BME280;11831;55.918;37.746;2023-04-10T02:07:25;100212.69;;;12.22;0.00
23318;BME280;11831;55.918;37.746;2023-04-10T02:09:57;100216.72;;;11.81;0.00
23318;BME280;11831;55.918;37.746;2023-04-10T02:14:52;100215.81;;;11.94;0.00
23318;BME280;11831;55.918;37.746;2023-04-10T02:17:22;100217.72;;;11.87;0.00
23318;BME280;11831;55.918;37.746;2023-04-10T02:19:51;100210.63;;;11.67;0.00
23318;BME280;11831;55.918;37.746;2023-04-10T02:22:18;100218.00;;;11.72;0.00
23318;BME280;11831;55.918;37.746;2023-04-10T02:24:44;100206.09;;;11.68;0.00
23318;BME280;11831;55.918;37.746;2023-04-10T02:27:10;100214.94;;;11.30;0.00
23318;BME280;11831;55.918;37.746;2023-04-10T02:29:36;100205.81;;;11.44;0.00
23318;BME280;11831;55.918;37.746;2023-04-10T02:32:05;100212.94;;;11.57;0.00
23318;BME280;11831;55.918;37.746;2023-04-10T02:34:31;100216.44;;;11.58;0.00
23318;BME280;11831;55.918;37.746;2023-04-10T02:36:57;100216.91;;;11.86;0.00
23318;BME280;11831;55.918;37.746;2023-04-10T02:39:23;100223.66;;;11.57;0.00
23318;BME280;11831;55.918;37.746;2023-04-10T02:41:50;100217.78;;;11.42;0.00
23318;BME280;11831;55.918;37.746;2023-04-10T02:44:16;100215.16;;;11.67;0.00
23318;BME280;11831;55.918;37.746;2023-04-10T02:46:42;100218.81;;;11.79;0.00
23318;BME280;11831;55.918;37.746;2023-04-10T02:49:08;100214.28;;;11.73;0.00
23318;BME280;11831;55.918;37.746;2023-04-10T02:51:34;100221.00;;;11.89;0.00
23318;BME280;11831;55.918;37.746;2023-04-10T02:54:01;100220.25;;;11.75;0.00
23318;BME280;11831;55.918;37.746;2023-04-10T02:56:27;100220.75;;;11.59;0.00
23318;BME280;11831;55.918;37.746;2023-04-10T02:58:53;100223.66;;;11.19;0.00
23318;BME280;11831;55.918;37.746;2023-04-10T03:01:20;100218.94;;;11.52;0.00
23318;BME280;11831;55.918;37.746;2023-04-10T03:03:47;100230.06;;;11.11;0.00
23318;BME280;11831;55.918;37.746;2023-04-10T03:06:13;100218.34;;;11.50;0.00
23318;BME280;11831;55.918;37.746;2023-04-10T03:08:39;100230.03;;;11.56;0.00
23318;BME280;11831;55.918;37.746;2023-04-10T03:11:06;100222.59;;;11.65;0.00
23318;BME280;11831;55.918;37.746;2023-04-10T03:13:32;100227.41;;;11.49;0.00
23318;BME280;11831;55.918;37.746;2023-04-10T03:15:58;100234.25;;;11.77;0.00
23318;BME280;11831;55.918;37.746;2023-04-10T03:18:24;100226.22;;;11.77;0.00
23318;BME280;11831;55.918;37.746;2023-04-10T03:20:51;100223.59;;;11.70;0.00
23318;BME280;11831;55.918;37.746;2023-04-10T03:23:18;100222.97;;;11.68;0.00
23318;BME280;11831;55.918;37.746;2023-04-10T03:25:44;100225.16;;;11.46;0.00
23318;BME280;11831;55.918;37.746;2023-04-10T03:28:14;100225.94;;;11.15;0.00
23318;BME280;11831;55.918;37.746;2023-04-10T03:30:40;100226.75;;;11.54;0.00
23318;BME280;11831;55.918;37.746;2023-04-10T03:33:06;100226.38;;;11.50;0.00
23318;BME280;11831;55.918;37.746;2023-04-10T03:35:33;100226.31;;;11.64;0.00
23318;BME280;11831;55.918;37.746;2023-04-10T03:37:59;100229.22;;;11.56;0.00
23318;BME280;11831;55.918;37.746;2023-04-10T03:40:25;100233.63;;;11.81;0.00
23318;BME280;11831;55.918;37.746;2023-04-10T03:42:51;100232.28;;;11.66;0.00
23318;BME280;11831;55.918;37.746;2023-04-10T03:45:17;100228.66;;;11.85;0.00
23318;BME280;11831;55.918;37.746;2023-04-10T03:47:43;100229.25;;;11.87;0.00
23318;BME280;11831;55.918;37.746;2023-04-10T03:50:10;100227.97;;;11.96;0.00
23318;BME280;11831;55.918;37.746;2023-04-10T03:52:37;100228.75;;;12.03;0.00
23318;BME280;11831;55.918;37.746;2023-04-10T03:55:03;100229.56;;;12.04;0.00
23318;BME280;11831;55.918;37.746;2023-04-10T03:57:29;100225.28;;;11.96;0.00
23318;BME280;11831;55.918;37.746;2023-04-10T03:59:55;100227.00;;;11.84;0.00
23318;BME280;11831;55.918;37.746;2023-04-10T04:02:22;100224.63;;;11.63;0.00
23318;BME280;11831;55.918;37.746;2023-04-10T04:04:48;100228.47;;;12.11;0.00
23318;BME280;11831;55.918;37.746;2023-04-10T04:07:14;100229.19;;;11.94;0.00
23318;BME280;11831;55.918;37.746;2023-04-10T04:09:41;100229.50;;;12.10;0.00
23318;BME280;11831;55.918;37.746;2023-04-10T04:12:07;100227.47;;;11.43;0.00
23318;BME280;11831;55.918;37.746;2023-04-10T04:14:34;100235.41;;;11.94;0.00
23318;BME280;11831;55.918;37.746;2023-04-10T04:17:01;100234.25;;;12.08;0.00
23318;BME280;11831;55.918;37.746;2023-04-10T04:19:27;100234.75;;;11.99;0.00
23318;BME280;11831;55.918;37.746;2023-04-10T04:21:58;100238.69;;;12.21;0.00
23318;BME280;11831;55.918;37.746;2023-04-10T04:24:25;100239.72;;;12.45;0.00
23318;BME280;11831;55.918;37.746;2023-04-10T04:26:51;100228.28;;;11.81;0.00
23318;BME280;11831;55.918;37.746;2023-04-10T04:29:21;100238.06;;;12.44;0.00
23318;BME280;11831;55.918;37.746;2023-04-10T04:31:47;100241.34;;;12.46;0.00
23318;BME280;11831;55.918;37.746;2023-04-10T04:34:13;100236.47;;;12.61;0.00
23318;BME280;11831;55.918;37.746;2023-04-10T04:36:41;100235.06;;;12.77;0.00
23318;BME280;11831;55.918;37.746;2023-04-10T04:39:09;100233.97;;;12.17;0.00
23318;BME280;11831;55.918;37.746;2023-04-10T04:41:36;100235.56;;;11.99;0.00
23318;BME280;11831;55.918;37.746;2023-04-10T04:44:03;100228.56;;;11.98;0.00
23318;BME280;11831;55.918;37.746;2023-04-10T04:46:29;100230.34;;;11.79;0.00
23318;BME280;11831;55.918;37.746;2023-04-10T04:48:55;100233.56;;;11.88;0.00
23318;BME280;11831;55.918;37.746;2023-04-10T04:51:22;100229.53;;;11.79;0.00
23318;BME280;11831;55.918;37.746;2023-04-10T04:53:48;100227.78;;;11.53;0.00
23318;BME280;11831;55.918;37.746;2023-04-10T04:56:14;100229.31;;;11.80;0.00
23318;BME280;11831;55.918;37.746;2023-04-10T04:58:41;100231.84;;;11.62;0.00
23318;BME280;11831;55.918;37.746;2023-04-10T05:01:07;100236.00;;;11.96;0.00
23318;BME280;11831;55.918;37.746;2023-04-10T05:03:39;100233.72;;;12.00;0.00
23318;BME280;11831;55.918;37.746;2023-04-10T05:06:07;100229.28;;;12.37;0.00
23318;BME280;11831;55.918;37.746;2023-04-10T05:08:33;100235.62;;;12.42;0.00
23318;BME280;11831;55.918;37.746;2023-04-10T05:10:59;100240.00;;;12.37;0.00
23318;BME280;11831;55.918;37.746;2023-04-10T05:13:27;100237.59;;;12.29;0.00
23318;BME280;11831;55.918;37.746;2023-04-10T05:15:53;100244.22;;;12.26;0.00
23318;BME280;11831;55.918;37.746;2023-04-10T05:18:19;100239.59;;;12.58;0.00
23318;BME280;11831;55.918;37.746;2023-04-10T05:20:52;100239.69;;;12.70;0.00
23318;BME280;11831;55.918;37.746;2023-04-10T05:23:18;100243.03;;;12.65;0.00
23318;BME280;11831;55.918;37.746;2023-04-10T05:25:45;100243.94;;;12.78;0.00
23318;BME280;11831;55.918;37.746;2023-04-10T05:28:12;100245.81;;;12.95;0.00
23318;BME280;11831;55.918;37.746;2023-04-10T05:30:39;100252.59;;;12.98;0.00
23318;BME280;11831;55.918;37.746;2023-04-10T05:33:05;100248.78;;;13.05;0.00
23318;BME280;11831;55.918;37.746;2023-04-10T05:35:32;100244.97;;;13.50;0.00
23318;BME280;11831;55.918;37.746;2023-04-10T05:37:58;100249.56;;;13.61;0.00
23318;BME280;11831;55.918;37.746;2023-04-10T05:40:25;100248.13;;;13.88;0.00
23318;BME280;11831;55.918;37.746;2023-04-10T05:42:52;100253.34;;;14.25;0.00
23318;BME280;11831;55.918;37.746;2023-04-10T05:45:19;100251.53;;;14.49;0.00
23318;BME280;11831;55.918;37.746;2023-04-10T05:47:45;100255.22;;;14.36;0.00
23318;BME280;11831;55.918;37.746;2023-04-10T05:50:11;100243.87;;;14.11;0.00
23318;BME280;11831;55.918;37.746;2023-04-10T05:52:40;100250.72;;;14.72;0.00
23318;BME280;11831;55.918;37.746;2023-04-10T05:55:07;100251.63;;;14.89;0.00
23318;BME280;11831;55.918;37.746;2023-04-10T05:57:33;100251.28;;;14.85;0.00
23318;BME280;11831;55.918;37.746;2023-04-10T05:59:59;100251.03;;;14.64;0.00
23318;BME280;11831;55.918;37.746;2023-04-10T06:02:26;100249.69;;;15.53;0.00
23318;BME280;11831;55.918;37.746;2023-04-10T06:04:52;100247.91;;;15.18;0.00
23318;BME280;11831;55.918;37.746;2023-04-10T06:07:18;100249.69;;;15.13;0.00
23318;BME280;11831;55.918;37.746;2023-04-10T06:09:45;100254.22;;;15.93;0.00
23318;BME280;11831;55.918;37.746;2023-04-10T06:12:11;100245.06;;;15.94;0.00
23318;BME280;11831;55.918;37.746;2023-04-10T06:14:37;100255.19;;;15.18;0.00
23318;BME280;11831;55.918;37.746;2023-04-10T06:17:03;100246.12;;;15.36;0.00
23318;BME280;11831;55.918;37.746;2023-04-10T06:19:29;100255.16;;;15.70;0.00
23318;BME280;11831;55.918;37.746;2023-04-10T06:21:55;100249.75;;;15.98;0.00
23318;BME280;11831;55.918;37.746;2023-04-10T06:24:21;100244.97;;;16.22;0.00
23318;BME280;11831;55.918;37.746;2023-04-10T06:26:48;100248.41;;;16.18;0.00
23318;BME280;11831;55.918;37.746;2023-04-10T06:29:14;100251.44;;;16.04;0.00
23318;BME280;11831;55.918;37.746;2023-04-10T06:31:40;100255.94;;;15.99;0.00
23318;BME280;11831;55.918;37.746;2023-04-10T06:34:07;100257.06;;;15.86;0.00
23318;BME280;11831;55.918;37.746;2023-04-10T06:36:33;100251.41;;;15.71;0.00
23318;BME280;11831;55.918;37.746;2023-04-10T06:38:59;100249.53;;;15.88;0.00
23318;BME280;11831;55.918;37.746;2023-04-10T06:41:27;100251.38;;;15.99;0.00
23318;BME280;11831;55.918;37.746;2023-04-10T06:43:53;100253.06;;;15.60;0.00
23318;BME280;11831;55.918;37.746;2023-04-10T06:46:19;100253.75;;;15.27;0.00
23318;BME280;11831;55.918;37.746;2023-04-10T06:48:45;100255.31;;;15.63;0.00
23318;BME280;11831;55.918;37.746;2023-04-10T06:51:11;100253.81;;;15.44;0.00
23318;BME280;11831;55.918;37.746;2023-04-10T06:53:37;100260.28;;;16.00;0.00
23318;BME280;11831;55.918;37.746;2023-04-10T06:56:04;100256.84;;;16.04;0.00
23318;BME280;11831;55.918;37.746;2023-04-10T06:58:30;100262.16;;;16.16;0.00
23318;BME280;11831;55.918;37.746;2023-04-10T07:00:56;100261.59;;;16.14;0.00
23318;BME280;11831;55.918;37.746;2023-04-10T07:03:23;100258.00;;;16.25;0.00
23318;BME280;11831;55.918;37.746;2023-04-10T07:05:49;100263.78;;;16.00;0.00
23318;BME280;11831;55.918;37.746;2023-04-10T07:08:15;100258.00;;;16.42;0.00
23318;BME280;11831;55.918;37.746;2023-04-10T07:10:42;100251.66;;;15.86;0.00
23318;BME280;11831;55.918;37.746;2023-04-10T07:13:08;100257.34;;;16.18;0.00
23318;BME280;11831;55.918;37.746;2023-04-10T07:15:34;100265.59;;;16.11;0.00
23318;BME280;11831;55.918;37.746;2023-04-10T07:18:00;100253.16;;;16.10;0.00
23318;BME280;11831;55.918;37.746;2023-04-10T07:20:26;100266.75;;;16.32;0.00
23318;BME280;11831;55.918;37.746;2023-04-10T07:22:53;100257.19;;;16.08;0.00
23318;BME280;11831;55.918;37.746;2023-04-10T07:25:19;100254.97;;;16.22;0.00
23318;BME280;11831;55.918;37.746;2023-04-10T07:27:45;100258.81;;;16.26;0.00
23318;BME280;11831;55.918;37.746;2023-04-10T07:30:11;100261.91;;;16.18;0.00
23318;BME280;11831;55.918;37.746;2023-04-10T07:32:38;100254.94;;;15.88;0.00
23318;BME280;11831;55.918;37.746;2023-04-10T07:35:05;100260.00;;;15.84;0.00
23318;BME280;11831;55.918;37.746;2023-04-10T07:37:32;100259.75;;;15.86;0.00
23318;BME280;11831;55.918;37.746;2023-04-10T07:39:58;100257.22;;;15.79;0.00
23318;BME280;11831;55.918;37.746;2023-04-10T07:42:24;100258.47;;;15.20;0.00
23318;BME280;11831;55.918;37.746;2023-04-10T07:44:50;100258.81;;;15.64;0.00
23318;BME280;11831;55.918;37.746;2023-04-10T07:47:16;100253.31;;;15.59;0.00
23318;BME280;11831;55.918;37.746;2023-04-10T07:49:42;100257.59;;;15.71;0.00
23318;BME280;11831;55.918;37.746;2023-04-10T07:52:08;100251.09;;;15.15;0.00
23318;BME280;11831;55.918;37.746;2023-04-10T07:54:35;100252.78;;;15.73;0.00
23318;BME280;11831;55.918;37.746;2023-04-10T07:57:01;100252.31;;;15.76;0.00
23318;BME280;11831;55.918;37.746;2023-04-10T07:59:27;100242.53;;;16.04;0.00
23318;BME280;11831;55.918;37.746;2023-04-10T08:01:53;100251.84;;;16.13;0.00
23318;BME280;11831;55.918;37.746;2023-04-10T08:04:20;100252.94;;;16.29;0.00
23318;BME280;11831;55.918;37.746;2023-04-10T08:06:46;100246.87;;;16.38;0.00
23318;BME280;11831;55.918;37.746;2023-04-10T08:09:12;100253.41;;;16.42;0.00
23318;BME280;11831;55.918;37.746;2023-04-10T08:11:38;100247.13;;;16.20;0.00
23318;BME280;11831;55.918;37.746;2023-04-10T08:14:04;100246.84;;;16.89;0.00
23318;BME280;11831;55.918;37.746;2023-04-10T08:16:32;100244.00;;;17.00;0.00
23318;BME280;11831;55.918;37.746;2023-04-10T08:18:59;100242.06;;;17.18;0.00
23318;BME280;11831;55.918;37.746;2023-04-10T08:21:26;100239.88;;;15.75;0.00
23318;BME280;11831;55.918;37.746;2023-04-10T08:23:52;100236.50;;;15.97;0.00
23318;BME280;11831;55.918;37.746;2023-04-10T08:26:19;100242.62;;;16.42;0.00
23318;BME280;11831;55.918;37.746;2023-04-10T08:28:49;100242.53;;;16.21;0.00
23318;BME280;11831;55.918;37.746;2023-04-10T08:31:16;100239.66;;;16.44;0.00
23318;BME280;11831;55.918;37.746;2023-04-10T08:33:43;100237.78;;;16.44;0.00
23318;BME280;11831;55.918;37.746;2023-04-10T08:36:09;100244.03;;;16.28;0.00
23318;BME280;11831;55.918;37.746;2023-04-10T08:38:35;100237.00;;;15.94;0.00
23318;BME280;11831;55.918;37.746;2023-04-10T08:41:02;100238.13;;;15.98;0.00
23318;BME280;11831;55.918;37.746;2023-04-10T08:43:28;100236.69;;;15.50;0.00
23318;BME280;11831;55.918;37.746;2023-04-10T08:45:55;100238.16;;;15.69;0.00
23318;BME280;11831;55.918;37.746;2023-04-10T08:48:21;100238.34;;;15.79;0.00
23318;BME280;11831;55.918;37.746;2023-04-10T08:50:51;100240.75;;;15.93;0.00
23318;BME280;11831;55.918;37.746;2023-04-10T08:53:17;100239.53;;;16.34;0.00
23318;BME280;11831;55.918;37.746;2023-04-10T08:55:45;100234.44;;;16.37;0.00
23318;BME280;11831;55.918;37.746;2023-04-10T08:58:11;100230.56;;;16.50;0.00
23318;BME280;11831;55.918;37.746;2023-04-10T09:00:38;100225.19;;;17.54;0.00
23318;BME280;11831;55.918;37.746;2023-04-10T09:03:08;100225.62;;;17.68;0.00
23318;BME280;11831;55.918;37.746;2023-04-10T09:05:36;100231.25;;;16.40;0.00
23318;BME280;11831;55.918;37.746;2023-04-10T09:08:03;100224.72;;;16.92;0.00
23318;BME280;11831;55.918;37.746;2023-04-10T09:10:29;100225.59;;;16.59;0.00
23318;BME280;11831;55.918;37.746;2023-04-10T09:12:55;100230.81;;;17.04;0.00
23318;BME280;11831;55.918;37.746;2023-04-10T09:15:21;100229.16;;;16.81;0.00
23318;BME280;11831;55.918;37.746;2023-04-10T09:17:58;100225.25;;;16.72;0.00
23318;BME280;11831;55.918;37.746;2023-04-10T09:20:24;100236.47;;;16.47;0.00
23318;BME280;11831;55.918;37.746;2023-04-10T09:22:51;100226.06;;;16.72;0.00
23318;BME280;11831;55.918;37.746;2023-04-10T09:25:33;100220.50;;;17.23;0.00
23318;BME280;11831;55.918;37.746;2023-04-10T09:28:03;100220.34;;;16.52;0.00
23318;BME280;11831;55.918;37.746;2023-04-10T09:30:33;100222.91;;;16.97;0.00
23318;BME280;11831;55.918;37.746;2023-04-10T09:33:00;100214.75;;;17.90;0.00
23318;BME280;11831;55.918;37.746;2023-04-10T09:35:36;100227.72;;;16.73;0.00
23318;BME280;11831;55.918;37.746;2023-04-10T09:38:20;100222.75;;;16.32;0.00
23318;BME280;11831;55.918;37.746;2023-04-10T09:40:47;100220.78;;;16.44;0.00
23318;BME280;11831;55.918;37.746;2023-04-10T09:43:23;100214.84;;;16.81;0.00
23318;BME280;11831;55.918;37.746;2023-04-10T09:45:54;100214.81;;;17.19;0.00
23318;BME280;11831;55.918;37.746;2023-04-10T09:48:21;100204.91;;;18.11;0.00
23318;BME280;11831;55.918;37.746;2023-04-10T09:50:48;100206.91;;;17.66;0.00
23318;BME280;11831;55.918;37.746;2023-04-10T09:53:14;100204.84;;;17.74;0.00
23318;BME280;11831;55.918;37.746;2023-04-10T09:55:42;100197.38;;;18.60;0.00
23318;BME280;11831;55.918;37.746;2023-04-10T09:58:08;100192.38;;;18.79;0.00
23318;BME280;11831;55.918;37.746;2023-04-10T10:00:37;100194.66;;;19.12;0.00
23318;BME280;11831;55.918;37.746;2023-04-10T10:03:03;100199.87;;;19.29;0.00
23318;BME280;11831;55.918;37.746;2023-04-10T10:05:34;100207.06;;;17.55;0.00
23318;BME280;11831;55.918;37.746;2023-04-10T10:08:00;100192.72;;;18.08;0.00
23318;BME280;11831;55.918;37.746;2023-04-10T10:10:26;100200.06;;;17.32;0.00
23318;BME280;11831;55.918;37.746;2023-04-10T10:12:56;100210.16;;;16.54;0.00
23318;BME280;11831;55.918;37.746;2023-04-10T10:20:51;100209.84;;;16.34;0.00
23318;BME280;11831;55.918;37.746;2023-04-10T10:23:18;100219.63;;;16.40;0.00
23318;BME280;11831;55.918;37.746;2023-04-10T10:25:44;100208.69;;;16.13;0.00
23318;BME280;11831;55.918;37.746;2023-04-10T10:28:12;100215.56;;;16.04;0.00
23318;BME280;11831;55.918;37.746;2023-04-10T10:30:38;100218.19;;;16.32;0.00
23318;BME280;11831;55.918;37.746;2023-04-10T10:33:06;100214.03;;;16.25;0.00
23318;BME280;11831;55.918;37.746;2023-04-10T10:35:35;100229.12;;;16.59;0.00
23318;BME280;11831;55.918;37.746;2023-04-10T10:38:02;100225.62;;;16.81;0.00
23318;BME280;11831;55.918;37.746;2023-04-10T10:40:30;100222.69;;;16.82;0.00
23318;BME280;11831;55.918;37.746;2023-04-10T10:45:53;100197.69;;;16.70;0.00
23318;BME280;11831;55.918;37.746;2023-04-10T10:48:21;100207.41;;;15.99;0.00
23318;BME280;11831;55.918;37.746;2023-04-10T10:50:54;100211.94;;;15.81;0.00
23318;BME280;11831;55.918;37.746;2023-04-10T10:55:57;100201.66;;;16.12;0.00
23318;BME280;11831;55.918;37.746;2023-04-10T11:01:07;100201.97;;;15.82;0.00
23318;BME280;11831;55.918;37.746;2023-04-10T11:03:34;100209.03;;;16.00;0.00
23318;BME280;11831;55.918;37.746;2023-04-10T11:06:01;100215.97;;;15.96;0.00
23318;BME280;11831;55.918;37.746;2023-04-10T11:08:34;100215.78;;;15.86;0.00
23318;BME280;11831;55.918;37.746;2023-04-10T11:11:01;100212.09;;;15.75;0.00
23318;BME280;11831;55.918;37.746;2023-04-10T11:13:28;100215.03;;;15.16;0.00
23318;BME280;11831;55.918;37.746;2023-04-10T11:15:58;100228.81;;;15.32;0.00
23318;BME280;11831;55.918;37.746;2023-04-10T11:21:10;100234.28;;;14.85;0.00
23318;BME280;11831;55.918;37.746;2023-04-10T11:26:48;100245.50;;;14.12;0.00
23318;BME280;11831;55.918;37.746;2023-04-10T11:31:45;100243.69;;;13.94;0.00
23318;BME280;11831;55.918;37.746;2023-04-10T11:34:11;100250.03;;;13.40;0.00
23318;BME280;11831;55.918;37.746;2023-04-10T11:36:41;100247.72;;;13.43;0.00
23318;BME280;11831;55.918;37.746;2023-04-10T11:39:09;100249.63;;;13.24;0.00
23318;BME280;11831;55.918;37.746;2023-04-10T11:41:41;100244.53;;;13.34;0.00
23318;BME280;11831;55.918;37.746;2023-04-10T11:44:09;100263.50;;;13.21;0.00
23318;BME280;11831;55.918;37.746;2023-04-10T11:46:36;100254.81;;;13.56;0.00
23318;BME280;11831;55.918;37.746;2023-04-10T11:49:03;100255.28;;;13.94;0.00
23318;BME280;11831;55.918;37.746;2023-04-10T11:51:30;100253.00;;;14.33;0.00
23318;BME280;11831;55.918;37.746;2023-04-10T11:59:24;100263.16;;;14.31;0.00
23318;BME280;11831;55.918;37.746;2023-04-10T12:01:52;100263.41;;;14.29;0.00
23318;BME280;11831;55.918;37.746;2023-04-10T12:04:21;100268.91;;;14.23;0.00
23318;BME280;11831;55.918;37.746;2023-04-10T12:06:48;100256.56;;;13.62;0.00
23318;BME280;11831;55.918;37.746;2023-04-10T12:09:16;100259.94;;;13.87;0.00
23318;BME280;11831;55.918;37.746;2023-04-10T12:11:49;100251.63;;;13.89;0.00
23318;BME280;11831;55.918;37.746;2023-04-10T12:14:16;100252.03;;;13.74;0.00
23318;BME280;11831;55.918;37.746;2023-04-10T12:16:43;100248.50;;;13.62;0.00
23318;BME280;11831;55.918;37.746;2023-04-10T12:19:10;100243.75;;;13.76;0.00
23318;BME280;11831;55.918;37.746;2023-04-10T12:21:36;100233.22;;;13.62;0.00
23318;BME280;11831;55.918;37.746;2023-04-10T12:24:02;100220.84;;;13.43;0.00
23318;BME280;11831;55.918;37.746;2023-04-10T12:26:29;100212.16;;;13.48;0.00
23318;BME280;11831;55.918;37.746;2023-04-10T12:28:55;100203.78;;;13.38;0.00
23318;BME280;11831;55.918;37.746;2023-04-10T12:31:28;100198.56;;;13.43;0.00
23318;BME280;11831;55.918;37.746;2023-04-10T12:33:55;100194.06;;;13.55;0.00
23318;BME280;11831;55.918;37.746;2023-04-10T12:36:23;100194.41;;;14.23;0.00
23318;BME280;11831;55.918;37.746;2023-04-10T12:38:51;100190.19;;;14.63;0.00
23318;BME280;11831;55.918;37.746;2023-04-10T12:41:24;100186.69;;;14.74;0.00
23318;BME280;11831;55.918;37.746;2023-04-10T12:43:51;100177.44;;;14.70;0.00
23318;BME280;11831;55.918;37.746;2023-04-10T12:46:25;100183.81;;;14.92;0.00
23318;BME280;11831;55.918;37.746;2023-04-10T12:48:51;100182.69;;;15.45;0.00
23318;BME280;11831;55.918;37.746;2023-04-10T12:51:18;100181.88;;;15.90;0.00
23318;BME280;11831;55.918;37.746;2023-04-10T12:53:45;100183.53;;;16.63;0.00
23318;BME280;11831;55.918;37.746;2023-04-10T12:56:12;100182.81;;;16.51;0.00
23318;BME280;11831;55.918;37.746;2023-04-10T12:58:38;100178.47;;;16.66;0.00
23318;BME280;11831;55.918;37.746;2023-04-10T13:01:07;100180.28;;;17.04;0.00
23318;BME280;11831;55.918;37.746;2023-04-10T13:03:35;100183.75;;;16.78;0.00
23318;BME280;11831;55.918;37.746;2023-04-10T13:06:01;100176.56;;;16.84;0.00
23318;BME280;11831;55.918;37.746;2023-04-10T13:08:28;100175.59;;;16.73;0.00
23318;BME280;11831;55.918;37.746;2023-04-10T13:10:58;100187.38;;;16.28;0.00
23318;BME280;11831;55.918;37.746;2023-04-10T13:13:33;100179.19;;;16.62;0.00
23318;BME280;11831;55.918;37.746;2023-04-10T13:15:59;100177.56;;;16.05;0.00
23318;BME280;11831;55.918;37.746;2023-04-10T13:18:26;100182.63;;;15.68;0.00
23318;BME280;11831;55.918;37.746;2023-04-10T13:20:52;100176.28;;;14.54;0.00
23318;BME280;11831;55.918;37.746;2023-04-10T13:23:18;100176.41;;;15.56;0.00
23318;BME280;11831;55.918;37.746;2023-04-10T13:25:44;100179.19;;;15.44;0.00
23318;BME280;11831;55.918;37.746;2023-04-10T13:28:11;100180.56;;;16.26;0.00